createdAt,value
2022-09-10T00:01:36.533Z,99000.22
2022-09-10T00:04:38.268Z,98993.78
2022-09-10T00:07:39.963Z,98979.53
2022-09-10T00:10:44.410Z,98978.50
2022-09-10T00:13:46.162Z,98971.28
2022-09-10T00:16:49.103Z,98972.09
2022-09-10T00:19:50.843Z,98973.75
2022-09-10T00:22:53.931Z,98971.06
2022-09-10T00:25:57.804Z,98972.50
2022-09-10T00:29:02.348Z,98977.06
2022-09-10T00:32:04.765Z,98961.97
2022-09-10T00:35:06.974Z,98970.84
2022-09-10T00:38:11.102Z,98967.13
2022-09-10T00:41:14.364Z,98969.00
2022-09-10T00:44:40.949Z,98976.25
2022-09-10T00:47:46.254Z,98969.44
2022-09-10T00:50:51.869Z,98959.75
2022-09-10T00:53:54.337Z,98959.56
2022-09-10T00:56:59.495Z,98954.78
2022-09-10T01:00:08.098Z,98964.69
2022-09-10T01:03:12.173Z,98952.09
2022-09-10T01:06:13.902Z,98950.44
2022-09-10T01:09:16.075Z,98952.94
2022-09-10T01:12:56.097Z,98952.31
2022-09-10T01:16:03.692Z,98951.09
2022-09-10T01:19:47.903Z,98934.13
2022-09-10T01:23:15.677Z,98922.38
2022-09-10T01:26:46.509Z,98928.38
2022-09-10T01:29:55.461Z,98931.25
2022-09-10T01:33:09.414Z,98924.63
2022-09-10T01:36:20.870Z,98921.78
2022-09-10T01:39:24.345Z,98911.63
2022-09-10T01:42:28.075Z,98918.44
2022-09-10T01:45:36.995Z,98915.13
2022-09-10T01:49:18.749Z,98909.13
2022-09-10T01:52:45.068Z,98906.47
2022-09-10T01:55:55.674Z,98907.28
2022-09-10T01:59:08.818Z,98897.78
2022-09-10T02:02:28.873Z,98902.75
2022-09-10T02:05:35.353Z,98901.50
2022-09-10T02:08:43.454Z,98894.28
2022-09-10T02:11:53.796Z,98897.34
2022-09-10T02:15:14.286Z,98889.53
2022-09-10T02:18:26.732Z,98895.28
2022-09-10T02:21:32.180Z,98906.84
2022-09-10T02:24:33.934Z,98893.88
2022-09-10T02:27:36.039Z,98904.16
2022-09-10T02:30:37.770Z,98904.38
2022-09-10T02:33:39.593Z,98896.13
2022-09-10T02:36:41.508Z,98902.09
2022-09-10T02:39:44.847Z,98901.69
2022-09-10T02:42:46.913Z,98898.19
2022-09-10T02:45:57.254Z,98909.75
2022-09-10T02:48:59.393Z,98913.47
2022-09-10T02:52:04.742Z,98909.13
2022-09-10T02:55:07.322Z,98914.06
2022-09-10T02:58:09.220Z,98906.88
2022-09-10T03:01:17.943Z,98908.53
2022-09-10T03:04:24.634Z,98914.72
2022-09-10T03:07:26.351Z,98914.06
2022-09-10T03:10:28.368Z,98908.31
2022-09-10T03:13:30.076Z,98914.28
2022-09-10T03:16:33.587Z,98915.31
2022-09-10T03:19:37.597Z,98912.22
2022-09-10T03:22:39.475Z,98917.75
2022-09-10T03:25:42.336Z,98928.47
2022-09-10T03:28:45.085Z,98921.47
2022-09-10T03:31:51.604Z,98911.16
2022-09-10T03:34:55.115Z,98917.75
2022-09-10T03:37:56.920Z,98907.44
2022-09-10T03:41:01.442Z,98908.88
2022-09-10T03:44:03.300Z,98893.63
2022-09-10T03:47:05.050Z,98897.75
2022-09-10T03:50:08.243Z,98892.56
2022-09-10T03:53:15.690Z,98893.41
2022-09-10T03:56:20.166Z,98889.91
2022-09-10T03:59:22.397Z,98892.78
2022-09-10T04:02:24.392Z,98896.09
2022-09-10T04:05:27.728Z,98886.19
2022-09-10T04:08:29.514Z,98890.13
2022-09-10T04:11:31.527Z,98891.97
2022-09-10T04:14:34.420Z,98889.28
2022-09-10T04:17:37.517Z,98884.13
2022-09-10T04:20:40.503Z,98893.19
2022-09-10T04:23:45.805Z,98880.59
2022-09-10T04:26:47.719Z,98883.09
2022-09-10T04:29:52.053Z,98878.78
2022-09-10T04:32:54.947Z,98883.28
2022-09-10T04:36:00.487Z,98878.34
2022-09-10T04:39:02.683Z,98876.09
2022-09-10T04:42:08.410Z,98882.28
2022-09-10T04:45:12.249Z,98877.94
2022-09-10T04:48:14.109Z,98876.72
2022-09-10T04:51:18.153Z,98870.34
2022-09-10T04:54:26.104Z,98872.38
2022-09-10T04:57:28.907Z,98864.13
2022-09-10T05:00:30.700Z,98866.59
2022-09-10T05:03:33.630Z,98863.91
2022-09-10T05:06:36.631Z,98865.16
2022-09-10T05:09:40.355Z,98867.19
2022-09-10T05:12:42.118Z,98863.66
2022-09-10T05:15:46.242Z,98870.88
2022-09-10T05:18:49.837Z,98858.84
2022-09-10T05:21:52.827Z,98861.28
2022-09-10T05:24:55.467Z,98864.41
2022-09-10T05:27:57.411Z,98870.56
2022-09-10T05:30:59.402Z,98874.28
2022-09-10T05:34:03.675Z,98871.72
2022-09-10T05:37:08.637Z,98871.97
2022-09-10T05:40:14.835Z,98882.34
2022-09-10T05:43:17.181Z,98881.53
2022-09-10T05:46:20.364Z,98888.97
2022-09-10T05:49:26.529Z,98882.44
2022-09-10T05:52:30.932Z,98895.78
2022-09-10T05:55:36.014Z,98891.63
2022-09-10T05:58:37.971Z,98900.09
2022-09-10T06:01:41.962Z,98901.09
2022-09-10T06:04:43.902Z,98896.94
2022-09-10T06:07:45.666Z,98903.16
2022-09-10T06:11:02.648Z,98906.19
2022-09-10T06:14:09.347Z,98909.88
2022-09-10T06:17:12.400Z,98910.91
2022-09-10T06:20:16.199Z,98909.66
2022-09-10T06:23:19.815Z,98898.06
2022-09-10T06:26:22.897Z,98894.91
2022-09-10T06:29:29.522Z,98894.81
2022-09-10T06:32:34.215Z,98889.94
2022-09-10T06:35:37.527Z,98896.47
2022-09-10T06:38:40.937Z,98888.94
2022-09-10T06:41:47.890Z,98890.28
2022-09-10T06:45:10.393Z,98902.00
2022-09-10T06:48:47.153Z,98901.34
2022-09-10T06:51:51.508Z,98895.38
2022-09-10T06:54:53.541Z,98885.88
2022-09-10T06:58:05.494Z,98895.75
2022-09-10T07:01:15.846Z,98900.81
2022-09-10T07:04:22.542Z,98888.69
2022-09-10T07:07:24.943Z,98894.53
2022-09-10T07:10:27.702Z,98892.75
2022-09-10T07:13:29.667Z,98887.50
2022-09-10T07:16:31.833Z,98889.16
2022-09-10T07:19:36.246Z,98890.09
2022-09-10T07:22:43.811Z,98887.50
2022-09-10T07:25:48.269Z,98885.38
2022-09-10T07:29:08.962Z,98888.72
2022-09-10T07:32:13.495Z,98880.88
2022-09-10T07:35:16.491Z,98892.97
2022-09-10T07:38:20.625Z,98897.28
2022-09-10T07:41:24.223Z,98898.50
2022-09-10T07:44:26.077Z,98890.59
2022-09-10T07:47:28.156Z,98902.94
2022-09-10T07:50:29.838Z,98888.81
2022-09-10T07:53:32.153Z,98895.38
2022-09-10T07:56:35.519Z,98905.75
2022-09-10T07:59:40.575Z,98896.78
2022-09-10T08:02:44.293Z,98909.72
2022-09-10T08:05:51.377Z,98910.13
2022-09-10T08:08:53.571Z,98916.25
2022-09-10T08:11:55.369Z,98901.44
2022-09-10T08:14:59.125Z,98904.19
2022-09-10T08:18:02.316Z,98900.69
2022-09-10T08:21:06.214Z,98900.06
2022-09-10T08:24:10.677Z,98897.53
2022-09-10T08:27:16.138Z,98897.88
2022-09-10T08:30:18.446Z,98900.56
2022-09-10T08:33:21.851Z,98900.78
2022-09-10T08:36:24.403Z,98903.81
2022-09-10T08:39:26.601Z,98900.63
2022-09-10T08:42:45.001Z,98914.50
2022-09-10T08:45:50.199Z,98909.88
2022-09-10T08:49:07.529Z,98919.56
2022-09-10T08:52:29.747Z,98907.34
2022-09-10T08:55:35.078Z,98903.97
2022-09-10T08:58:58.911Z,98905.78
2022-09-10T09:02:47.172Z,98904.47
2022-09-10T09:05:51.748Z,98913.03
2022-09-10T09:08:55.057Z,98907.78
2022-09-10T09:12:18.946Z,98906.56
2022-09-10T09:15:41.673Z,98917.41
2022-09-10T09:19:02.225Z,98909.44
2022-09-10T09:22:19.430Z,98907.69
2022-09-10T09:25:27.283Z,98900.16
2022-09-10T09:28:46.544Z,98900.69
2022-09-10T09:31:54.237Z,98897.66
2022-09-10T09:35:23.924Z,98894.09
2022-09-10T09:38:39.213Z,98890.09
2022-09-10T09:42:07.214Z,98894.78
2022-09-10T09:45:25.247Z,98891.34
2022-09-10T09:48:37.919Z,98894.34
2022-09-10T09:51:40.647Z,98877.84
2022-09-10T09:55:13.039Z,98881.84
2022-09-10T09:58:24.266Z,98869.78
2022-09-10T10:01:27.141Z,98862.72
2022-09-10T10:04:33.864Z,98870.88
2022-09-10T10:07:38.863Z,98870.88
2022-09-10T10:10:40.587Z,98867.31
2022-09-10T10:13:45.576Z,98874.47
2022-09-10T10:16:49.673Z,98887.22
2022-09-10T10:20:05.611Z,98878.66
2022-09-10T10:23:36.438Z,98876.41
2022-09-10T10:26:38.442Z,98883.63
2022-09-10T10:29:40.233Z,98875.31
2022-09-10T10:32:44.782Z,98873.59
2022-09-10T10:35:58.763Z,98869.69
2022-09-10T10:39:20.627Z,98870.84
2022-09-10T10:42:52.310Z,98873.38
2022-09-10T10:46:07.557Z,98881.75
2022-09-10T10:49:31.951Z,98878.19
2022-09-10T10:53:13.884Z,98881.53
2022-09-10T10:56:28.360Z,98866.56
2022-09-10T10:59:35.934Z,98868.38
2022-09-10T11:02:45.141Z,98868.16
2022-09-10T11:05:53.866Z,98859.63
2022-09-10T11:09:06.369Z,98863.88
2022-09-10T11:12:21.343Z,98858.09
2022-09-10T11:15:30.511Z,98861.34
2022-09-10T11:18:39.233Z,98859.75
2022-09-10T11:21:49.465Z,98864.94
2022-09-10T11:25:00.532Z,98856.19
2022-09-10T11:28:16.799Z,98855.06
2022-09-10T11:31:30.360Z,98847.16
2022-09-10T11:34:35.826Z,98849.09
2022-09-10T11:37:51.067Z,98860.22
2022-09-10T11:41:22.863Z,98850.50
2022-09-10T11:44:36.464Z,98841.69
2022-09-10T11:47:48.978Z,98844.66
2022-09-10T11:51:08.993Z,98848.03
2022-09-10T11:54:14.771Z,98845.31
2022-09-10T11:57:48.385Z,98846.09
2022-09-10T12:01:08.686Z,98831.41
2022-09-10T12:04:28.299Z,98828.09
2022-09-10T12:07:39.011Z,98848.28
2022-09-10T12:11:18.897Z,98839.81
2022-09-10T12:14:21.642Z,98846.44
2022-09-10T12:17:29.915Z,98836.03
2022-09-10T12:20:39.268Z,98824.91
2022-09-10T12:23:43.680Z,98813.72
2022-09-10T12:26:45.735Z,98826.44
2022-09-10T12:29:47.952Z,98827.81
2022-09-10T12:32:50.433Z,98815.59
2022-09-10T12:35:52.677Z,98816.69
2022-09-10T12:39:16.520Z,98808.50
2022-09-10T12:42:28.187Z,98811.47
2022-09-10T12:46:02.980Z,98817.53
2022-09-10T12:49:11.530Z,98811.44
2022-09-10T12:52:20.437Z,98805.56
2022-09-10T12:55:49.262Z,98811.88
2022-09-10T12:59:30.854Z,98803.72
2022-09-10T13:02:36.543Z,98804.22
2022-09-10T13:05:54.100Z,98804.34
2022-09-10T13:08:57.052Z,98798.44
2022-09-10T13:12:06.311Z,98796.41
2022-09-10T13:15:18.020Z,98797.53
2022-09-10T13:18:28.447Z,98799.09
2022-09-10T13:21:30.109Z,98800.06
2022-09-10T13:24:35.714Z,98800.94
2022-09-10T13:27:40.753Z,98793.03
2022-09-10T13:30:43.550Z,98792.47
2022-09-10T13:33:59.592Z,98787.75
2022-09-10T13:37:38.621Z,98783.75
2022-09-10T13:40:52.525Z,98783.16
2022-09-10T13:44:09.021Z,98783.44
2022-09-10T13:47:17.527Z,98777.59
2022-09-10T13:50:24.539Z,98773.63
2022-09-10T13:53:30.003Z,98770.94
2022-09-10T13:56:33.361Z,98772.28
2022-09-10T13:59:36.956Z,98769.25
2022-09-10T14:02:43.965Z,98759.84
2022-09-10T14:06:07.699Z,98766.66
2022-09-10T14:09:11.696Z,98769.41
2022-09-10T14:12:16.067Z,98771.06
2022-09-10T14:15:24.783Z,98768.63
2022-09-10T14:18:37.032Z,98774.13
2022-09-10T14:21:39.067Z,98773.22
2022-09-10T14:24:40.924Z,98776.38
2022-09-10T14:27:44.122Z,98779.63
2022-09-10T14:30:50.607Z,98790.47
2022-09-10T14:33:53.923Z,98784.31
2022-09-10T14:36:55.717Z,98784.34
2022-09-10T14:40:03.937Z,98789.13
2022-09-10T14:43:16.192Z,98798.78
2022-09-10T14:46:57.280Z,98801.75
2022-09-10T14:50:31.503Z,98804.66
2022-09-10T14:53:33.219Z,98802.53
2022-09-10T14:56:43.844Z,98824.72
2022-09-10T14:59:46.648Z,98804.66
2022-09-10T15:02:53.414Z,98817.94
2022-09-10T15:05:55.218Z,98819.91
2022-09-10T15:08:57.455Z,98823.47
2022-09-10T15:12:09.528Z,98829.13
2022-09-10T15:15:17.362Z,98837.50
2022-09-10T15:18:19.382Z,98834.13
2022-09-10T15:21:21.318Z,98838.44
2022-09-10T15:24:23.647Z,98836.53
2022-09-10T15:27:25.407Z,98838.97
2022-09-10T15:30:27.113Z,98833.47
2022-09-10T15:33:28.850Z,98830.06
2022-09-10T15:36:30.697Z,98831.84
2022-09-10T15:39:32.727Z,98839.63
2022-09-10T15:42:35.000Z,98843.25
2022-09-10T15:45:37.552Z,98837.38
2022-09-10T15:48:40.226Z,98843.63
2022-09-10T15:51:42.063Z,98843.91
2022-09-10T15:54:44.206Z,98850.69
2022-09-10T15:57:49.842Z,98854.09
2022-09-10T16:00:52.725Z,98847.44
2022-09-10T16:03:56.866Z,98851.22
2022-09-10T16:06:58.733Z,98854.13
2022-09-10T16:10:00.888Z,98856.16
2022-09-10T16:13:02.936Z,98859.50
2022-09-10T16:16:08.853Z,98860.97
2022-09-10T16:19:12.503Z,98861.59
2022-09-10T16:22:16.451Z,98857.31
2022-09-10T16:25:22.096Z,98863.88
2022-09-10T16:28:24.379Z,98866.38
2022-09-10T16:31:28.765Z,98865.72
2022-09-10T16:34:31.142Z,98865.56
2022-09-10T16:37:33.468Z,98855.84
2022-09-10T16:40:35.139Z,98857.97
2022-09-10T16:43:37.679Z,98859.44
2022-09-10T16:46:41.924Z,98858.09
2022-09-10T16:49:43.773Z,98876.34
2022-09-10T16:52:49.039Z,98866.38
2022-09-10T16:55:51.370Z,98868.78
2022-09-10T16:58:53.138Z,98871.31
2022-09-10T17:01:57.796Z,98869.66
2022-09-10T17:04:59.623Z,98869.22
2022-09-10T17:08:01.407Z,98874.91
2022-09-10T17:11:03.097Z,98875.25
2022-09-10T17:14:05.173Z,98880.59
2022-09-10T17:17:06.844Z,98880.94
2022-09-10T17:20:09.081Z,98879.63
2022-09-10T17:23:12.893Z,98877.78
2022-09-10T17:26:14.652Z,98874.25
2022-09-10T17:29:22.744Z,98877.66
2022-09-10T17:32:24.455Z,98881.03
2022-09-10T17:35:26.630Z,98878.78
2022-09-10T17:38:30.174Z,98884.50
2022-09-10T17:41:31.964Z,98889.44
2022-09-10T17:44:33.826Z,98890.41
2022-09-10T17:47:35.556Z,98889.97
2022-09-10T17:50:37.261Z,98890.06
2022-09-10T17:53:39.182Z,98898.28
2022-09-10T17:56:41.978Z,98900.69
2022-09-10T17:59:43.706Z,98898.19
2022-09-10T18:02:45.502Z,98896.31
2022-09-10T18:05:47.574Z,98906.63
2022-09-10T18:08:50.373Z,98904.44
2022-09-10T18:11:52.173Z,98900.78
2022-09-10T18:14:53.955Z,98908.88
2022-09-10T18:17:59.301Z,98907.03
2022-09-10T18:21:16.142Z,98903.75
2022-09-10T18:24:24.134Z,98902.63
2022-09-10T18:27:26.367Z,98908.16
2022-09-10T18:30:28.528Z,98902.72
2022-09-10T18:33:35.102Z,98914.34
2022-09-10T18:36:36.896Z,98912.63
2022-09-10T18:39:38.760Z,98916.66
2022-09-10T18:42:44.724Z,98934.72
2022-09-10T18:45:48.306Z,98946.81
2022-09-10T18:48:50.783Z,98943.78
2022-09-10T18:51:54.932Z,98942.78
2022-09-10T18:54:56.675Z,98955.47
2022-09-10T18:57:58.492Z,98952.22
2022-09-10T19:01:09.863Z,98958.25
2022-09-10T19:04:14.603Z,98964.50
2022-09-10T19:07:17.623Z,98960.34
2022-09-10T19:10:19.329Z,98965.97
2022-09-10T19:13:21.003Z,98970.09
2022-09-10T19:16:27.774Z,98973.41
2022-09-10T19:19:31.972Z,98972.13
2022-09-10T19:22:33.859Z,98968.19
2022-09-10T19:25:35.608Z,98978.31
2022-09-10T19:28:39.613Z,98970.84
2022-09-10T19:31:42.290Z,98966.44
2022-09-10T19:34:44.380Z,98971.63
2022-09-10T19:37:48.221Z,98970.59
2022-09-10T19:40:50.328Z,98965.97
2022-09-10T19:43:53.952Z,98959.94
2022-09-10T19:46:55.629Z,98961.16
2022-09-10T19:49:59.035Z,98959.50
2022-09-10T19:53:00.734Z,98959.03
2022-09-10T19:56:10.373Z,98953.66
2022-09-10T19:59:12.849Z,98953.50
2022-09-10T20:02:14.638Z,98955.38
2022-09-10T20:05:16.689Z,98947.91
2022-09-10T20:08:18.431Z,98942.72
2022-09-10T20:11:27.798Z,98941.31
2022-09-10T20:14:30.156Z,98947.13
2022-09-10T20:17:31.878Z,98948.41
2022-09-10T20:20:33.631Z,98943.25
2022-09-10T20:23:36.542Z,98937.72
2022-09-10T20:26:39.859Z,98943.09
2022-09-10T20:29:44.074Z,98939.81
2022-09-10T20:32:45.816Z,98933.59
2022-09-10T20:35:47.486Z,98931.56
2022-09-10T20:38:50.917Z,98934.25
2022-09-10T20:41:53.191Z,98938.63
2022-09-10T20:44:55.588Z,98932.25
2022-09-10T20:47:59.805Z,98936.59
2022-09-10T20:51:01.591Z,98929.56
2022-09-10T20:54:04.746Z,98925.59
2022-09-10T20:57:07.126Z,98922.50
2022-09-10T21:00:10.022Z,98925.56
2022-09-10T21:03:12.986Z,98927.81
2022-09-10T21:06:19.441Z,98928.63
2022-09-10T21:09:21.135Z,98922.44
2022-09-10T21:12:22.862Z,98926.59
2022-09-10T21:15:24.688Z,98924.34
2022-09-10T21:18:26.608Z,98921.22
2022-09-10T21:21:30.880Z,98929.50
2022-09-10T21:24:32.577Z,98921.28
2022-09-10T21:27:34.349Z,98925.59
2022-09-10T21:30:36.056Z,98923.72
2022-09-10T21:33:38.348Z,98922.09
2022-09-10T21:36:41.285Z,98924.38
2022-09-10T21:39:44.122Z,98916.94
2022-09-10T21:42:45.854Z,98919.91
2022-09-10T21:45:48.168Z,98925.34
2022-09-10T21:48:50.766Z,98924.59
2022-09-10T21:51:52.520Z,98918.03
2022-09-10T21:54:54.196Z,98919.28
2022-09-10T21:57:55.930Z,98907.13
2022-09-10T22:00:58.579Z,98906.53
2022-09-10T22:04:01.017Z,98898.09
2022-09-10T22:07:04.646Z,98904.28
2022-09-10T22:10:07.180Z,98917.75
2022-09-10T22:13:09.514Z,98917.13
2022-09-10T22:16:12.794Z,98911.59
2022-09-10T22:19:20.024Z,98915.09
2022-09-10T22:22:21.676Z,98915.94
2022-09-10T22:25:23.323Z,98913.69
2022-09-10T22:28:25.014Z,98913.06
2022-09-10T22:31:29.521Z,98908.13
2022-09-10T22:34:31.256Z,98914.13
2022-09-10T22:37:33.121Z,98906.47
2022-09-10T22:40:34.810Z,98918.03
2022-09-10T22:43:38.422Z,98918.03
2022-09-10T22:46:40.895Z,98917.22
2022-09-10T22:49:43.956Z,98923.81
2022-09-10T22:52:46.801Z,98922.34
2022-09-10T22:55:49.306Z,98932.47
2022-09-10T22:58:51.944Z,98936.59
2022-09-10T23:01:53.831Z,98938.25
2022-09-10T23:04:56.200Z,98938.25
2022-09-10T23:07:58.062Z,98934.13
2022-09-10T23:11:15.278Z,98926.91
2022-09-10T23:14:20.132Z,98925.44
2022-09-10T23:17:22.750Z,98931.66
2022-09-10T23:20:25.051Z,98932.25
2022-09-10T23:23:27.568Z,98932.88
2022-09-10T23:26:29.615Z,98931.84
2022-09-10T23:29:31.850Z,98926.88
2022-09-10T23:32:33.514Z,98926.69
2022-09-10T23:35:35.198Z,98928.31
2022-09-10T23:38:37.263Z,98924.00
2022-09-10T23:41:40.404Z,98918.03
2022-09-10T23:44:42.177Z,98926.91
2022-09-10T23:47:44.007Z,98919.66
2022-09-10T23:50:45.737Z,98922.16
2022-09-10T23:53:48.376Z,98920.06
2022-09-10T23:56:50.296Z,98928.53
2022-09-10T23:59:52.568Z,98918.81
